LFYR 210400Z AUTO 00000KT 1500 1300 BR BKN017 BKN058 M03/M03 Q1035

ElémentsDécodage
LFYR Station météo située sur l'aérodrome de ROMORANTIN Pruniers
210400Z émis le 21 du mois à 04h00 UTC
AUTO Bulletin édité par un automate
00000KT vent nul
1500 visibilité horizontale de 1500 mètres
1300 visibilité horizontale de 1300 mètres
BR brume
BKN017 nuages morcelés (5/8 à 7/8) à 1700 pieds
BKN058 nuages morcelés (5/8 à 7/8) à 5800 pieds
M03/M03 température -03°C, point de rosée -03°C
 soit une humidité relative de 100%
Q1035 la pression au niveau de la mer (QNH) est de 1035 hPa